createdAt,value
2022-09-24T00:01:39.486Z,99.90
2022-09-24T00:04:09.569Z,99.90
2022-09-24T00:06:40.845Z,99.90
2022-09-24T00:09:08.608Z,99.90
2022-09-24T00:11:39.103Z,99.90
2022-09-24T00:14:07.607Z,99.90
2022-09-24T00:16:35.810Z,99.90
2022-09-24T00:19:05.211Z,99.90
2022-09-24T00:21:35.540Z,99.90
2022-09-24T00:24:06.637Z,99.90
2022-09-24T00:26:52.161Z,99.90
2022-09-24T00:29:23.797Z,99.90
2022-09-24T00:31:53.280Z,99.90
2022-09-24T00:34:21.667Z,99.90
2022-09-24T00:36:49.462Z,99.90
2022-09-24T00:39:17.989Z,99.90
2022-09-24T00:41:48.784Z,99.90
2022-09-24T00:44:48.664Z,99.90
2022-09-24T00:47:25.969Z,99.90
2022-09-24T00:49:57.215Z,99.90
2022-09-24T00:52:24.936Z,99.90
2022-09-24T00:54:53.635Z,99.90
2022-09-24T00:57:21.433Z,99.90
2022-09-24T00:59:50.749Z,99.90
2022-09-24T01:02:18.572Z,99.90
2022-09-24T01:04:48.330Z,99.90
2022-09-24T01:07:16.204Z,99.90
2022-09-24T01:09:44.105Z,99.90
2022-09-24T01:12:18.502Z,99.90
2022-09-24T01:15:04.829Z,99.90
2022-09-24T01:17:40.713Z,99.90
2022-09-24T01:20:39.675Z,99.90
2022-09-24T01:23:25.648Z,99.90
2022-09-24T01:26:09.243Z,99.90
2022-09-24T01:28:45.321Z,99.90
2022-09-24T01:31:21.321Z,99.90
2022-09-24T01:33:53.321Z,99.90
2022-09-24T01:36:22.740Z,99.90
2022-09-24T01:38:53.191Z,99.90
2022-09-24T01:41:22.603Z,99.90
2022-09-24T01:43:50.700Z,99.90
2022-09-24T01:46:21.377Z,99.90
2022-09-24T01:48:50.289Z,99.90
2022-09-24T01:51:22.837Z,99.90
2022-09-24T01:53:56.048Z,99.90
2022-09-24T01:56:27.660Z,99.90
2022-09-24T01:59:00.393Z,99.90
2022-09-24T02:01:33.369Z,99.90
2022-09-24T02:04:07.152Z,99.90
2022-09-24T02:06:38.961Z,99.90
2022-09-24T02:09:07.067Z,99.90
2022-09-24T02:11:37.822Z,99.90
2022-09-24T02:14:10.449Z,99.90
2022-09-24T02:16:45.824Z,99.90
2022-09-24T02:19:17.567Z,99.90
2022-09-24T02:21:47.031Z,99.90
2022-09-24T02:24:18.164Z,99.90
2022-09-24T02:26:46.231Z,99.90
2022-09-24T02:29:14.627Z,99.90
2022-09-24T02:31:47.575Z,99.90
2022-09-24T02:34:21.408Z,99.90
2022-09-24T02:36:50.090Z,99.90
2022-09-24T02:39:18.373Z,99.90
2022-09-24T02:41:48.008Z,99.90
2022-09-24T02:44:16.417Z,99.90
2022-09-24T02:46:52.832Z,99.90
2022-09-24T02:49:20.580Z,99.90
2022-09-24T02:51:48.285Z,99.90
2022-09-24T02:54:16.056Z,99.90
2022-09-24T02:56:43.832Z,99.90
2022-09-24T02:59:12.198Z,99.90
2022-09-24T03:01:40.410Z,99.90
2022-09-24T03:04:09.938Z,99.90
2022-09-24T03:06:37.730Z,99.90
2022-09-24T03:09:06.093Z,99.90
2022-09-24T03:11:35.534Z,99.90
2022-09-24T03:14:03.268Z,99.90
2022-09-24T03:16:31.029Z,99.90
2022-09-24T03:18:58.741Z,99.90
2022-09-24T03:21:27.942Z,99.90
2022-09-24T03:23:55.755Z,99.90
2022-09-24T03:26:23.469Z,99.90
2022-09-24T03:28:51.223Z,99.90
2022-09-24T03:31:18.030Z,99.90
2022-09-24T03:33:47.157Z,99.90
2022-09-24T03:36:17.404Z,99.90
2022-09-24T03:38:48.334Z,99.90
2022-09-24T03:41:17.113Z,99.90
2022-09-24T03:43:44.965Z,99.90
2022-09-24T03:46:13.681Z,99.90
2022-09-24T03:48:42.495Z,99.90
2022-09-24T03:51:12.428Z,99.90
2022-09-24T03:53:40.627Z,99.90
2022-09-24T03:56:11.787Z,99.90
2022-09-24T03:58:41.247Z,99.90
2022-09-24T04:01:12.002Z,99.90
2022-09-24T04:03:40.408Z,99.90
2022-09-24T04:06:08.624Z,99.90
2022-09-24T04:08:36.483Z,99.90
2022-09-24T04:11:04.393Z,99.90
2022-09-24T04:13:33.483Z,99.90
2022-09-24T04:16:03.196Z,99.90
2022-09-24T04:18:33.616Z,99.90
2022-09-24T04:21:03.788Z,99.90
2022-09-24T04:23:32.045Z,99.90
2022-09-24T04:26:00.608Z,99.90
2022-09-24T04:28:28.863Z,99.90
2022-09-24T04:30:58.056Z,99.90
2022-09-24T04:33:25.837Z,99.90
2022-09-24T04:35:53.678Z,99.90
2022-09-24T04:38:21.878Z,99.90
2022-09-24T04:40:49.972Z,99.90
2022-09-24T04:43:18.988Z,99.90
2022-09-24T04:45:47.615Z,99.90
2022-09-24T04:48:17.171Z,99.90
2022-09-24T04:50:46.448Z,99.90
2022-09-24T04:53:14.746Z,99.90
2022-09-24T04:55:42.511Z,99.90
2022-09-24T04:58:10.725Z,99.90
2022-09-24T05:00:38.483Z,99.90
2022-09-24T05:03:06.669Z,99.90
2022-09-24T05:05:36.623Z,99.90
2022-09-24T05:08:04.747Z,99.90
2022-09-24T05:10:33.175Z,99.90
2022-09-24T05:13:02.043Z,99.90
2022-09-24T05:15:29.755Z,99.90
2022-09-24T05:17:57.460Z,99.90
2022-09-24T05:20:25.578Z,99.90
2022-09-24T05:22:54.972Z,99.90
2022-09-24T05:25:23.380Z,99.90
2022-09-24T05:27:51.867Z,99.90
2022-09-24T05:30:21.184Z,99.90
2022-09-24T05:32:51.786Z,99.90
2022-09-24T05:35:19.988Z,99.90
2022-09-24T05:37:49.417Z,99.90
2022-09-24T05:40:36.230Z,99.90
2022-09-24T05:43:05.118Z,99.90
2022-09-24T05:45:33.490Z,99.90
2022-09-24T05:48:01.591Z,99.90
2022-09-24T05:50:29.324Z,99.90
2022-09-24T05:52:57.060Z,99.90
2022-09-24T05:55:30.175Z,99.90
2022-09-24T05:58:04.367Z,99.90
2022-09-24T06:00:32.321Z,99.90
2022-09-24T06:03:05.320Z,99.90
2022-09-24T06:05:34.169Z,99.90
2022-09-24T06:08:02.546Z,99.90
2022-09-24T06:10:31.868Z,99.90
2022-09-24T06:12:59.565Z,99.90
2022-09-24T06:15:27.532Z,99.90
2022-09-24T06:17:55.583Z,99.90
2022-09-24T06:20:23.658Z,99.90
2022-09-24T06:22:52.347Z,99.90
2022-09-24T06:25:20.058Z,99.90
2022-09-24T06:27:56.024Z,99.90
2022-09-24T06:30:23.618Z,99.90
2022-09-24T06:32:51.321Z,99.90
2022-09-24T06:35:20.413Z,99.90
2022-09-24T06:37:49.181Z,99.90
2022-09-24T06:40:17.412Z,99.90
2022-09-24T06:42:45.168Z,99.90
2022-09-24T06:45:14.632Z,99.90
2022-09-24T06:47:42.309Z,99.90
2022-09-24T06:50:10.559Z,99.90
2022-09-24T06:52:38.259Z,99.90
2022-09-24T06:55:06.972Z,99.90
2022-09-24T06:57:34.652Z,99.90
2022-09-24T07:00:02.692Z,99.90
2022-09-24T07:02:31.777Z,99.90
2022-09-24T07:04:59.480Z,99.90
2022-09-24T07:07:34.117Z,99.90
2022-09-24T07:10:03.620Z,99.90
2022-09-24T07:12:32.951Z,99.90
2022-09-24T07:15:01.356Z,99.90
2022-09-24T07:17:33.894Z,99.90
2022-09-24T07:20:02.405Z,99.90
2022-09-24T07:22:30.093Z,99.90
2022-09-24T07:24:57.788Z,99.90
2022-09-24T07:27:25.492Z,99.90
2022-09-24T07:29:53.181Z,99.90
2022-09-24T07:32:20.869Z,99.90
2022-09-24T07:34:49.881Z,99.90
2022-09-24T07:37:17.541Z,99.90
2022-09-24T07:39:45.547Z,99.90
2022-09-24T07:42:13.206Z,99.90
2022-09-24T07:44:41.015Z,97.80
2022-09-24T07:47:13.355Z,97.60
2022-09-24T07:49:43.248Z,98.30
2022-09-24T07:52:12.473Z,98.40
2022-09-24T07:54:40.532Z,98.80
2022-09-24T07:57:13.468Z,99.90
2022-09-24T07:59:41.642Z,99.90
2022-09-24T08:02:16.258Z,99.20
2022-09-24T08:04:44.236Z,98.40
2022-09-24T08:07:14.143Z,95.30
2022-09-24T08:09:41.908Z,92.00
2022-09-24T08:12:10.965Z,85.80
2022-09-24T08:14:38.641Z,81.00
2022-09-24T08:17:06.330Z,81.20
2022-09-24T08:19:34.365Z,78.60
2022-09-24T08:22:02.062Z,75.60
2022-09-24T08:24:31.745Z,70.90
2022-09-24T08:26:59.665Z,68.70
2022-09-24T08:29:27.341Z,66.20
2022-09-24T08:31:55.039Z,66.20
2022-09-24T08:34:22.795Z,67.30
2022-09-24T08:36:50.614Z,68.10
2022-09-24T08:39:18.327Z,68.20
2022-09-24T08:41:56.002Z,68.80
2022-09-24T08:44:47.662Z,68.90
2022-09-24T08:47:24.635Z,70.80
2022-09-24T08:50:03.130Z,71.70
2022-09-24T08:52:41.629Z,73.50
2022-09-24T08:55:16.049Z,76.10
2022-09-24T08:57:55.848Z,78.00
2022-09-24T09:00:23.604Z,81.30
2022-09-24T09:02:59.372Z,84.80
2022-09-24T09:05:35.303Z,84.90
2022-09-24T09:08:27.548Z,86.30
2022-09-24T09:11:01.601Z,87.60
2022-09-24T09:13:37.127Z,84.40
2022-09-24T09:16:08.111Z,82.80
2022-09-24T09:18:41.259Z,79.30
2022-09-24T09:21:17.607Z,76.90
2022-09-24T09:23:49.455Z,72.70
2022-09-24T09:26:20.068Z,69.60
2022-09-24T09:28:49.794Z,69.80
2022-09-24T09:31:29.479Z,70.90
2022-09-24T09:34:18.485Z,72.30
2022-09-24T09:36:58.969Z,72.40
2022-09-24T09:39:37.483Z,74.60
2022-09-24T09:42:23.039Z,78.10
2022-09-24T09:44:52.529Z,83.00
2022-09-24T09:47:27.239Z,86.60
2022-09-24T09:49:58.745Z,87.70
2022-09-24T09:52:31.057Z,87.60
2022-09-24T09:54:59.117Z,85.80
2022-09-24T09:57:27.318Z,87.20
2022-09-24T09:59:56.917Z,86.80
2022-09-24T10:02:28.246Z,85.80
2022-09-24T10:04:57.717Z,85.50
2022-09-24T10:07:25.668Z,83.50
2022-09-24T10:10:03.775Z,83.00
2022-09-24T10:12:31.878Z,79.90
2022-09-24T10:15:03.090Z,77.20
2022-09-24T10:17:35.633Z,76.00
2022-09-24T10:20:09.416Z,73.00
2022-09-24T10:22:39.314Z,70.40
2022-09-24T10:25:07.732Z,70.00
2022-09-24T10:27:38.089Z,69.90
2022-09-24T10:30:35.893Z,69.20
2022-09-24T10:33:06.115Z,69.20
2022-09-24T10:35:38.353Z,73.80
2022-09-24T10:38:17.696Z,77.10
2022-09-24T10:40:45.853Z,79.50
2022-09-24T10:43:18.893Z,80.30
2022-09-24T10:46:01.215Z,81.60
2022-09-24T10:48:35.983Z,81.50
2022-09-24T10:51:12.938Z,83.10
2022-09-24T10:53:50.768Z,82.60
2022-09-24T10:56:27.944Z,82.70
2022-09-24T10:59:27.865Z,82.80
2022-09-24T11:02:15.040Z,83.40
2022-09-24T11:04:51.503Z,83.30
2022-09-24T11:07:55.014Z,78.10
2022-09-24T11:10:32.703Z,74.90
2022-09-24T11:13:15.365Z,73.00
2022-09-24T11:16:04.518Z,72.30
2022-09-24T11:18:41.704Z,72.20
2022-09-24T11:21:24.264Z,72.80
2022-09-24T11:24:13.742Z,73.10
2022-09-24T11:26:55.200Z,72.00
2022-09-24T11:29:37.182Z,71.80
2022-09-24T11:32:13.771Z,73.30
2022-09-24T11:34:55.460Z,74.00
2022-09-24T11:37:39.530Z,76.40
2022-09-24T11:40:22.661Z,78.80
2022-09-24T11:43:01.879Z,82.40
2022-09-24T11:45:43.251Z,84.70
2022-09-24T11:48:43.628Z,84.50
2022-09-24T11:51:23.841Z,83.30
2022-09-24T11:53:58.200Z,84.70
2022-09-24T11:56:31.084Z,87.20
2022-09-24T11:59:03.756Z,88.80
2022-09-24T12:01:34.634Z,88.50
2022-09-24T12:04:10.349Z,89.60
2022-09-24T12:06:47.238Z,90.10
2022-09-24T12:09:20.493Z,90.90
2022-09-24T12:11:55.005Z,91.90
2022-09-24T12:14:26.247Z,92.20
2022-09-24T12:16:59.111Z,92.10
2022-09-24T12:19:32.512Z,91.70
2022-09-24T12:22:04.242Z,90.50
2022-09-24T12:24:36.992Z,88.20
2022-09-24T12:27:12.301Z,85.50
2022-09-24T12:30:05.216Z,84.50
2022-09-24T12:32:57.720Z,81.70
2022-09-24T12:35:41.004Z,80.90
2022-09-24T12:38:15.338Z,78.30
2022-09-24T12:41:20.007Z,77.80
2022-09-24T12:43:52.582Z,78.50
2022-09-24T12:46:23.738Z,77.80
2022-09-24T12:48:53.347Z,76.60
2022-09-24T12:51:23.723Z,78.30
2022-09-24T12:54:01.236Z,79.50
2022-09-24T12:56:31.184Z,79.90
2022-09-24T12:58:59.569Z,79.40
2022-09-24T13:01:30.354Z,79.70
2022-09-24T13:04:25.932Z,80.10
2022-09-24T13:06:54.647Z,79.70
2022-09-24T13:09:36.833Z,80.70
2022-09-24T13:12:19.773Z,81.20
2022-09-24T13:14:52.649Z,81.50
2022-09-24T13:17:20.432Z,81.60
2022-09-24T13:19:51.596Z,83.90
2022-09-24T13:22:26.134Z,85.80
2022-09-24T13:25:19.110Z,87.90
2022-09-24T13:27:58.172Z,86.00
2022-09-24T13:30:35.217Z,87.80
2022-09-24T13:33:10.672Z,88.40
2022-09-24T13:35:45.261Z,88.50
2022-09-24T13:38:21.683Z,88.50
2022-09-24T13:40:58.517Z,89.00
2022-09-24T13:43:37.831Z,89.60
2022-09-24T13:46:12.013Z,90.40
2022-09-24T13:48:43.669Z,90.70
2022-09-24T13:51:14.895Z,90.80
2022-09-24T13:53:48.152Z,91.10
2022-09-24T13:56:20.243Z,90.80
2022-09-24T13:58:51.236Z,90.50
2022-09-24T14:01:22.059Z,90.20
2022-09-24T14:03:55.279Z,88.50
2022-09-24T14:06:34.490Z,87.50
2022-09-24T14:09:02.544Z,86.60
2022-09-24T14:11:31.679Z,86.20
2022-09-24T14:14:11.329Z,86.30
2022-09-24T14:16:39.025Z,84.80
2022-09-24T14:19:07.178Z,84.70
2022-09-24T14:21:38.220Z,86.50
2022-09-24T14:24:10.086Z,85.20
2022-09-24T14:26:42.674Z,81.30
2022-09-24T14:29:15.955Z,82.50
2022-09-24T14:31:47.144Z,83.30
2022-09-24T14:34:25.188Z,83.90
2022-09-24T14:36:54.043Z,85.00
2022-09-24T14:39:25.145Z,86.60
2022-09-24T14:41:55.910Z,86.10
2022-09-24T14:44:26.367Z,87.30
2022-09-24T14:46:57.687Z,88.00
2022-09-24T14:49:27.525Z,88.80
2022-09-24T14:51:57.539Z,88.30
2022-09-24T14:54:32.566Z,87.10
2022-09-24T14:57:12.884Z,87.40
2022-09-24T14:59:41.572Z,88.10
2022-09-24T15:02:18.835Z,88.50
2022-09-24T15:04:49.027Z,88.90
2022-09-24T15:07:18.766Z,88.20
2022-09-24T15:09:51.292Z,88.10
2022-09-24T15:12:24.717Z,89.20
2022-09-24T15:14:57.126Z,89.20
2022-09-24T15:17:29.840Z,88.40
2022-09-24T15:19:57.991Z,88.30
2022-09-24T15:22:26.772Z,87.70
2022-09-24T15:25:00.284Z,88.00
2022-09-24T15:27:32.525Z,87.70
2022-09-24T15:30:01.597Z,88.30
2022-09-24T15:32:30.877Z,88.90
2022-09-24T15:34:58.793Z,88.90
2022-09-24T15:37:27.918Z,89.80
2022-09-24T15:39:59.993Z,90.00
2022-09-24T15:42:28.196Z,90.10
2022-09-24T15:44:58.942Z,90.30
2022-09-24T15:47:26.659Z,90.40
2022-09-24T15:49:54.358Z,90.70
2022-09-24T15:52:26.067Z,91.30
2022-09-24T15:54:55.104Z,91.20
2022-09-24T15:57:23.455Z,90.80
2022-09-24T15:59:51.527Z,90.30
2022-09-24T16:02:25.867Z,90.00
2022-09-24T16:04:54.082Z,90.00
2022-09-24T16:07:21.787Z,89.60
2022-09-24T16:09:49.650Z,88.70
2022-09-24T16:12:18.125Z,89.10
2022-09-24T16:14:46.092Z,88.70
2022-09-24T16:17:13.895Z,89.10
2022-09-24T16:19:42.909Z,90.50
2022-09-24T16:22:10.602Z,90.60
2022-09-24T16:24:38.295Z,91.40
2022-09-24T16:27:05.979Z,91.00
2022-09-24T16:29:33.688Z,90.80
2022-09-24T16:32:02.067Z,91.20
2022-09-24T16:34:29.872Z,91.20
2022-09-24T16:36:58.899Z,91.30
2022-09-24T16:39:26.676Z,91.40
2022-09-24T16:41:54.673Z,91.60
2022-09-24T16:44:22.367Z,91.70
2022-09-24T16:46:50.914Z,91.50
2022-09-24T16:49:19.292Z,92.10
2022-09-24T16:51:47.032Z,92.60
2022-09-24T16:54:16.047Z,92.50
2022-09-24T16:56:43.723Z,92.70
2022-09-24T16:59:11.857Z,93.10
2022-09-24T17:01:42.240Z,93.40
2022-09-24T17:04:10.240Z,94.10
2022-09-24T17:06:38.022Z,96.80
2022-09-24T17:09:23.139Z,97.80
2022-09-24T17:11:52.311Z,98.60
2022-09-24T17:14:20.056Z,99.40
2022-09-24T17:16:47.776Z,99.90
2022-09-24T17:19:16.168Z,99.90
2022-09-24T17:21:45.910Z,99.90
2022-09-24T17:24:17.858Z,99.90
2022-09-24T17:26:49.040Z,92.50
2022-09-24T17:29:20.480Z,87.20
2022-09-24T17:31:48.260Z,85.80
2022-09-24T17:34:15.995Z,83.80
2022-09-24T17:36:43.889Z,80.80
2022-09-24T17:39:13.432Z,79.90
2022-09-24T17:41:41.424Z,79.20
2022-09-24T17:44:10.590Z,78.90
2022-09-24T17:46:39.650Z,80.00
2022-09-24T17:49:07.548Z,81.80
2022-09-24T17:51:37.641Z,85.20
2022-09-24T17:54:07.973Z,87.90
2022-09-24T17:56:38.675Z,91.80
2022-09-24T17:59:07.846Z,94.60
2022-09-24T18:01:37.384Z,98.20
2022-09-24T18:04:08.077Z,99.90
2022-09-24T18:06:38.313Z,99.90
2022-09-24T18:09:06.404Z,99.90
2022-09-24T18:11:39.075Z,99.50
2022-09-24T18:14:06.837Z,99.80
2022-09-24T18:16:34.936Z,99.90
2022-09-24T18:19:03.547Z,99.90
2022-09-24T18:21:32.827Z,99.90
2022-09-24T18:24:01.496Z,99.90
2022-09-24T18:26:32.253Z,99.90
2022-09-24T18:29:01.719Z,99.90
2022-09-24T18:31:30.823Z,99.90
2022-09-24T18:34:03.795Z,99.90
2022-09-24T18:36:34.278Z,99.90
2022-09-24T18:39:02.551Z,99.90
2022-09-24T18:41:31.982Z,99.90
2022-09-24T18:44:00.412Z,99.90
2022-09-24T18:46:31.511Z,99.90
2022-09-24T18:49:00.328Z,99.90
2022-09-24T18:51:29.695Z,99.90
2022-09-24T18:54:00.103Z,99.90
2022-09-24T18:56:28.609Z,99.90
2022-09-24T18:58:57.245Z,99.90
2022-09-24T19:01:26.998Z,99.90
2022-09-24T19:03:55.336Z,99.90
2022-09-24T19:06:23.240Z,99.90
2022-09-24T19:08:51.065Z,99.90
2022-09-24T19:11:21.377Z,99.90
2022-09-24T19:13:51.173Z,99.90
2022-09-24T19:16:20.528Z,99.90
2022-09-24T19:18:48.440Z,99.90
2022-09-24T19:21:16.739Z,99.90
2022-09-24T19:23:46.218Z,99.90
2022-09-24T19:26:16.028Z,99.90
2022-09-24T19:28:45.933Z,99.90
2022-09-24T19:31:16.630Z,99.90
2022-09-24T19:33:45.011Z,99.90
2022-09-24T19:36:13.357Z,99.90
2022-09-24T19:38:42.155Z,99.90
2022-09-24T19:41:14.874Z,99.90
2022-09-24T19:43:44.995Z,99.90
2022-09-24T19:46:16.722Z,99.90
2022-09-24T19:48:46.423Z,99.90
2022-09-24T19:51:16.193Z,99.90
2022-09-24T19:53:44.428Z,99.90
2022-09-24T19:56:14.217Z,99.90
2022-09-24T19:58:41.959Z,99.90
2022-09-24T20:01:16.297Z,99.90
2022-09-24T20:03:46.118Z,99.90
2022-09-24T20:06:17.217Z,99.90
2022-09-24T20:08:46.587Z,99.90
2022-09-24T20:11:17.085Z,99.90
2022-09-24T20:13:46.079Z,99.90
2022-09-24T20:16:19.013Z,99.90
2022-09-24T20:18:47.247Z,99.90
2022-09-24T20:21:17.078Z,99.90
2022-09-24T20:23:45.626Z,99.90
2022-09-24T20:26:31.625Z,99.90
2022-09-24T20:28:59.670Z,99.90
2022-09-24T20:31:29.797Z,99.90
2022-09-24T20:33:58.407Z,99.90
2022-09-24T20:36:26.364Z,99.90
2022-09-24T20:38:54.304Z,99.90
2022-09-24T20:41:25.072Z,99.90
2022-09-24T20:43:55.065Z,99.90
2022-09-24T20:46:24.871Z,99.90
2022-09-24T20:48:57.988Z,99.90
2022-09-24T20:51:27.185Z,99.90
2022-09-24T20:53:55.220Z,99.90
2022-09-24T20:56:23.439Z,99.90
2022-09-24T20:58:52.901Z,99.90
2022-09-24T21:01:21.387Z,99.90
2022-09-24T21:03:50.001Z,99.90
2022-09-24T21:06:22.600Z,99.90
2022-09-24T21:08:50.691Z,99.90
2022-09-24T21:11:20.829Z,99.90
2022-09-24T21:13:51.426Z,99.90
2022-09-24T21:16:20.990Z,99.90
2022-09-24T21:18:49.851Z,99.90
2022-09-24T21:21:20.532Z,99.90
2022-09-24T21:23:49.694Z,99.90
2022-09-24T21:26:19.133Z,99.90
2022-09-24T21:28:48.123Z,99.90
2022-09-24T21:31:16.128Z,99.90
2022-09-24T21:33:47.097Z,99.90
2022-09-24T21:36:18.413Z,99.90
2022-09-24T21:38:54.142Z,99.90
2022-09-24T21:41:22.980Z,99.90
2022-09-24T21:43:50.995Z,99.90
2022-09-24T21:46:18.827Z,99.90
2022-09-24T21:48:46.722Z,99.90
2022-09-24T21:51:19.345Z,99.90
2022-09-24T21:53:48.511Z,99.90
2022-09-24T21:56:18.766Z,99.90
2022-09-24T21:58:46.847Z,99.90
2022-09-24T22:01:17.319Z,99.90
2022-09-24T22:03:46.560Z,99.90
2022-09-24T22:06:15.250Z,99.90
2022-09-24T22:08:45.335Z,99.90
2022-09-24T22:11:15.694Z,99.90
2022-09-24T22:13:43.478Z,99.90
2022-09-24T22:16:12.304Z,99.90
2022-09-24T22:18:40.905Z,99.90
2022-09-24T22:21:10.491Z,99.90
2022-09-24T22:23:38.725Z,99.90
2022-09-24T22:26:08.005Z,99.90
2022-09-24T22:28:38.095Z,99.90
2022-09-24T22:31:07.840Z,99.90
2022-09-24T22:33:53.911Z,99.90
2022-09-24T22:36:21.939Z,99.90
2022-09-24T22:38:52.997Z,99.90
2022-09-24T22:41:21.256Z,99.90
2022-09-24T22:43:50.427Z,99.90
2022-09-24T22:46:18.295Z,99.90
2022-09-24T22:48:47.244Z,99.90
2022-09-24T22:51:16.111Z,99.90
2022-09-24T22:53:43.838Z,99.90
2022-09-24T22:56:13.641Z,99.90
2022-09-24T22:58:43.220Z,99.90
2022-09-24T23:01:16.678Z,99.90
2022-09-24T23:03:45.660Z,99.90
2022-09-24T23:06:13.651Z,99.90
2022-09-24T23:08:42.587Z,99.90
2022-09-24T23:11:12.084Z,99.90
2022-09-24T23:13:41.180Z,99.90
2022-09-24T23:16:12.894Z,99.90
2022-09-24T23:18:42.266Z,99.90
2022-09-24T23:21:12.197Z,99.90
2022-09-24T23:23:39.949Z,99.90
2022-09-24T23:26:16.277Z,99.90
2022-09-24T23:28:45.679Z,99.90
2022-09-24T23:31:15.983Z,99.90
2022-09-24T23:33:44.282Z,99.90
2022-09-24T23:36:14.236Z,99.90
2022-09-24T23:38:42.842Z,99.90
2022-09-24T23:41:11.879Z,99.90
2022-09-24T23:43:39.689Z,99.90
2022-09-24T23:46:07.920Z,99.90
2022-09-24T23:48:37.320Z,99.90
2022-09-24T23:51:05.271Z,99.90
2022-09-24T23:53:34.174Z,99.90
2022-09-24T23:56:03.334Z,99.90
2022-09-24T23:58:31.656Z,99.90
